Time;durP1;ratioP1;P1;durP2;ratioP2;P2;SDS_P1;SDS_P2;PMS_P1;PMS_P2;Temp;Humidity;BMP_temperature;BMP_pressure;BME280_temperature;BME280_humidity;BME280_pressure;Samples;Min_cycle;Max_cycle;Signal;HPM_P1;HPM_P2
2022/10/27 00:01:51;;;;;;;12.85;3.25;;;16.40;99.90;;;;;;5061132;28;20098;-74
2022/10/27 00:04:17;;;;;;;6.93;3.00;;;16.40;99.90;;;;;;5062105;28;20031;-74
2022/10/27 00:06:43;;;;;;;6.65;3.22;;;16.40;99.90;;;;;;5055640;28;20028;-74
2022/10/27 00:09:08;;;;;;;10.07;3.60;;;16.30;99.90;;;;;;5063394;28;20021;-74
2022/10/27 00:11:34;;;;;;;12.23;4.07;;;16.40;99.90;;;;;;5061692;28;20401;-74
2022/10/27 00:14:00;;;;;;;7.47;3.47;;;16.40;99.90;;;;;;5059833;28;20031;-74
2022/10/27 00:16:25;;;;;;;8.77;3.45;;;16.40;99.90;;;;;;5055954;28;20041;-74
2022/10/27 00:18:51;;;;;;;9.32;3.72;;;16.30;99.90;;;;;;5063315;28;20043;-74
2022/10/27 00:21:19;;;;;;;10.27;4.07;;;16.40;99.90;;;;;;5063470;28;20087;-74
2022/10/27 00:23:49;;;;;;;10.88;4.15;;;16.40;99.90;;;;;;5056357;28;20045;-74
2022/10/27 00:26:15;;;;;;;12.52;3.92;;;16.40;99.90;;;;;;5059730;28;20021;-74
2022/10/27 00:28:42;;;;;;;11.80;4.20;;;16.30;99.90;;;;;;5060116;28;20428;-73
2022/10/27 00:31:21;;;;;;;9.13;3.50;;;16.30;99.90;;;;;;5059707;28;20439;-74
2022/10/27 00:33:48;;;;;;;10.95;4.45;;;16.30;99.90;;;;;;5061245;28;20029;-74
2022/10/27 00:36:17;;;;;;;6.57;3.45;;;16.30;99.90;;;;;;5057946;28;20075;-74
2022/10/27 00:38:43;;;;;;;9.68;3.97;;;16.30;99.90;;;;;;5055567;28;20029;-74
2022/10/27 00:41:29;;;;;;;8.40;3.85;;;16.30;99.90;;;;;;5060025;28;20489;-74
2022/10/27 00:43:56;;;;;;;9.93;3.63;;;16.30;99.90;;;;;;5059803;28;20028;-74
2022/10/27 00:46:42;;;;;;;13.80;3.83;;;16.40;99.90;;;;;;5058480;28;20028;-74
2022/10/27 00:49:16;;;;;;;11.13;3.83;;;16.40;99.90;;;;;;5064903;28;20017;-74
2022/10/27 00:51:47;;;;;;;9.13;3.53;;;16.40;99.90;;;;;;5061045;28;20020;-74
2022/10/27 00:54:14;;;;;;;10.43;3.63;;;16.40;99.90;;;;;;5061026;28;20057;-74
2022/10/27 00:56:41;;;;;;;10.13;3.50;;;16.40;99.90;;;;;;5065000;28;20059;-74
2022/10/27 00:59:07;;;;;;;11.57;4.13;;;16.50;99.90;;;;;;5054035;28;20550;-74
2022/10/27 01:01:34;;;;;;;7.50;3.63;;;16.50;99.90;;;;;;5061138;28;20043;-74
2022/10/27 01:03:59;;;;;;;9.13;3.47;;;16.40;99.90;;;;;;5061338;28;20020;-74
2022/10/27 01:06:26;;;;;;;8.25;3.50;;;16.40;99.90;;;;;;5063337;28;20024;-74
2022/10/27 01:08:52;;;;;;;7.53;3.35;;;16.50;99.90;;;;;;5053989;28;20017;-74
2022/10/27 01:11:17;;;;;;;11.68;3.65;;;16.40;99.90;;;;;;5062758;28;20032;-74
2022/10/27 01:13:43;;;;;;;7.57;3.28;;;16.40;99.90;;;;;;5059462;28;20025;-74
2022/10/27 01:16:26;;;;;;;7.75;3.10;;;16.50;99.90;;;;;;5058757;28;20101;-74
2022/10/27 01:19:10;;;;;;;13.07;4.03;;;16.50;99.90;;;;;;5061500;28;20056;-74
2022/10/27 01:22:06;;;;;;;8.77;3.20;;;16.40;99.90;;;;;;5059879;28;20586;-74
2022/10/27 01:25:03;;;;;;;8.88;2.97;;;16.40;99.90;;;;;;5068800;28;20025;-74
2022/10/27 01:28:05;;;;;;;4.25;2.72;;;16.40;99.90;;;;;;5058039;28;20477;-74
2022/10/27 01:30:51;;;;;;;7.05;3.10;;;16.40;99.90;;;;;;5056729;28;20382;-74
2022/10/27 01:33:24;;;;;;;12.23;3.05;;;16.40;99.90;;;;;;5060246;28;20048;-74
2022/10/27 01:36:14;;;;;;;6.70;2.60;;;16.40;99.90;;;;;;5066990;28;20025;-74
2022/10/27 01:38:50;;;;;;;5.25;2.40;;;16.40;99.90;;;;;;5055885;28;20373;-74
2022/10/27 01:41:25;;;;;;;8.05;3.17;;;16.50;99.90;;;;;;5058003;28;20028;-74
2022/10/27 01:43:55;;;;;;;5.57;2.60;;;16.40;99.90;;;;;;5057432;28;20064;-74
2022/10/27 01:46:21;;;;;;;5.85;2.80;;;16.40;99.90;;;;;;5055426;28;20454;-74
2022/10/27 01:48:47;;;;;;;8.77;2.42;;;16.40;99.90;;;;;;5061708;28;20037;-74
2022/10/27 01:51:13;;;;;;;7.20;2.40;;;16.50;99.90;;;;;;5059928;28;20465;-74
2022/10/27 01:53:43;;;;;;;13.35;2.78;;;16.40;99.90;;;;;;5055864;28;20207;-74
2022/10/27 01:56:46;;;;;;;7.65;2.58;;;16.50;99.90;;;;;;5058509;28;20482;-74
2022/10/27 01:59:27;;;;;;;7.50;2.50;;;16.50;99.90;;;;;;5064086;28;20032;-74
2022/10/27 02:02:09;;;;;;;6.32;2.53;;;16.40;99.90;;;;;;5066003;28;20044;-74
2022/10/27 02:04:47;;;;;;;6.05;2.83;;;16.50;99.90;;;;;;5064739;28;20470;-74
2022/10/27 02:07:48;;;;;;;7.60;2.17;;;16.50;99.90;;;;;;5060882;28;20108;-74
2022/10/27 02:10:37;;;;;;;7.85;2.85;;;16.50;99.90;;;;;;5050345;28;20088;-74
2022/10/27 02:13:04;;;;;;;4.25;2.40;;;16.50;99.90;;;;;;5062026;28;20113;-74
2022/10/27 02:15:37;;;;;;;11.50;3.10;;;16.50;99.90;;;;;;5061890;28;20060;-74
2022/10/27 02:18:09;;;;;;;8.35;2.40;;;16.50;99.90;;;;;;5063931;28;20029;-74
2022/10/27 02:20:40;;;;;;;5.78;2.20;;;16.50;99.90;;;;;;5062294;28;20037;-74
2022/10/27 02:23:08;;;;;;;8.80;2.10;;;16.50;99.90;;;;;;5066293;28;20024;-74
2022/10/27 02:26:00;;;;;;;6.78;2.13;;;16.40;99.90;;;;;;5071347;28;20021;-74
2022/10/27 02:28:32;;;;;;;9.87;2.37;;;16.50;99.90;;;;;;5058644;28;20108;-74
2022/10/27 02:30:59;;;;;;;7.82;2.50;;;16.50;99.90;;;;;;5063901;28;20035;-74
2022/10/27 02:33:25;;;;;;;9.80;2.53;;;16.40;99.90;;;;;;5062302;28;20024;-74
2022/10/27 02:35:53;;;;;;;3.53;2.20;;;16.40;99.90;;;;;;5069456;28;20055;-74
2022/10/27 02:38:20;;;;;;;5.18;1.88;;;16.40;99.90;;;;;;5062284;28;20112;-74
2022/10/27 02:40:46;;;;;;;12.80;2.55;;;16.30;99.90;;;;;;5061652;28;20093;-74
2022/10/27 02:43:11;;;;;;;8.52;2.75;;;16.30;99.90;;;;;;5065555;28;20497;-74
2022/10/27 02:45:37;;;;;;;6.80;2.53;;;16.30;99.90;;;;;;5068702;28;20070;-74
2022/10/27 02:48:03;;;;;;;10.77;2.80;;;16.20;99.90;;;;;;5067090;28;20035;-74
2022/10/27 02:50:28;;;;;;;12.85;2.63;;;16.20;99.90;;;;;;5063574;28;20025;-74
2022/10/27 02:52:54;;;;;;;11.15;2.67;;;16.10;99.90;;;;;;5068723;28;20079;-74
2022/10/27 02:55:19;;;;;;;5.97;2.33;;;16.10;99.90;;;;;;5058545;28;20029;-74
2022/10/27 02:57:45;;;;;;;6.00;2.15;;;16.20;99.90;;;;;;5066971;28;20028;-74
2022/10/27 03:00:12;;;;;;;12.40;2.40;;;16.20;99.90;;;;;;5060464;28;20025;-74
2022/10/27 03:02:37;;;;;;;4.70;2.47;;;16.20;99.90;;;;;;5066293;28;20032;-74
2022/10/27 03:05:03;;;;;;;7.10;2.28;;;16.10;99.90;;;;;;5063151;28;20033;-74
2022/10/27 03:07:29;;;;;;;9.55;2.60;;;16.10;99.90;;;;;;5060218;28;20056;-74
2022/10/27 03:09:55;;;;;;;4.80;2.10;;;16.10;99.90;;;;;;5075023;28;20074;-74
2022/10/27 03:12:20;;;;;;;7.88;2.33;;;16.10;99.90;;;;;;5063281;28;20094;-74
2022/10/27 03:14:46;;;;;;;11.35;2.85;;;16.10;99.90;;;;;;5066784;28;20035;-74
2022/10/27 03:17:11;;;;;;;6.63;2.10;;;16.10;99.90;;;;;;5059594;28;20485;-74
2022/10/27 03:19:37;;;;;;;12.43;2.80;;;15.90;99.90;;;;;;5061361;28;20044;-74
2022/10/27 03:22:03;;;;;;;9.23;2.75;;;15.80;99.90;;;;;;5064500;28;20024;-74
2022/10/27 03:24:28;;;;;;;7.15;2.40;;;15.80;99.90;;;;;;5057841;28;20104;-74
2022/10/27 03:26:54;;;;;;;7.82;2.55;;;15.70;99.90;;;;;;5058966;28;20373;-74
2022/10/27 03:29:19;;;;;;;7.88;3.00;;;15.70;99.90;;;;;;5061766;28;20035;-74
2022/10/27 03:31:45;;;;;;;5.13;2.22;;;15.70;99.90;;;;;;5060269;28;20031;-74
2022/10/27 03:34:11;;;;;;;8.10;2.80;;;15.70;99.90;;;;;;5062673;28;20032;-74
2022/10/27 03:36:37;;;;;;;7.40;2.65;;;15.60;99.90;;;;;;5063581;28;20082;-74
2022/10/27 03:39:02;;;;;;;8.13;2.47;;;15.60;99.90;;;;;;5061145;28;20033;-74
2022/10/27 03:41:28;;;;;;;7.30;2.88;;;15.50;99.90;;;;;;5061590;28;20040;-74
2022/10/27 03:43:53;;;;;;;15.13;2.58;;;15.40;99.90;;;;;;5063955;28;20072;-74
2022/10/27 03:46:19;;;;;;;5.78;2.85;;;15.40;99.90;;;;;;5060636;28;20560;-74
2022/10/27 03:48:45;;;;;;;10.30;2.70;;;15.40;99.90;;;;;;5064154;28;20043;-73
2022/10/27 03:51:10;;;;;;;11.52;3.30;;;15.40;99.90;;;;;;5062085;28;20040;-74
2022/10/27 03:53:36;;;;;;;10.13;3.35;;;15.50;99.90;;;;;;5065579;28;20056;-74
2022/10/27 03:56:02;;;;;;;11.25;3.45;;;15.50;99.90;;;;;;5061634;28;20052;-74
2022/10/27 03:58:28;;;;;;;11.70;2.85;;;15.50;99.90;;;;;;5060914;28;20104;-74
2022/10/27 04:00:53;;;;;;;10.82;2.70;;;15.60;99.90;;;;;;5063685;28;20461;-74
2022/10/27 04:03:19;;;;;;;7.97;2.70;;;15.60;99.90;;;;;;5060418;28;20036;-74
2022/10/27 04:05:49;;;;;;;9.02;3.13;;;15.50;99.90;;;;;;5066426;28;20033;-74
2022/10/27 04:08:15;;;;;;;10.25;3.88;;;15.60;99.90;;;;;;5063627;28;20020;-74
2022/10/27 04:10:40;;;;;;;10.38;3.10;;;15.60;99.90;;;;;;5066207;28;20047;-74
2022/10/27 04:13:06;;;;;;;10.82;3.08;;;15.60;99.90;;;;;;5061686;28;20028;-74
2022/10/27 04:15:31;;;;;;;15.60;3.63;;;15.60;99.90;;;;;;5060898;28;20530;-74
2022/10/27 04:17:58;;;;;;;9.52;2.70;;;15.60;99.90;;;;;;5062461;28;20119;-74
2022/10/27 04:20:26;;;;;;;9.95;2.88;;;15.50;99.90;;;;;;5064901;28;20040;-74
2022/10/27 04:22:55;;;;;;;9.65;3.25;;;15.50;99.90;;;;;;5056761;28;20461;-74
2022/10/27 04:25:21;;;;;;;13.02;3.17;;;15.60;99.90;;;;;;5065785;28;20028;-74
2022/10/27 04:27:47;;;;;;;9.18;2.90;;;15.60;99.90;;;;;;5064939;28;20025;-73
2022/10/27 04:30:13;;;;;;;16.48;3.72;;;15.60;99.90;;;;;;5063434;28;20119;-74
2022/10/27 04:32:38;;;;;;;9.43;2.47;;;15.60;99.90;;;;;;5061073;28;20028;-74
2022/10/27 04:35:08;;;;;;;11.30;3.15;;;15.50;99.90;;;;;;5061027;28;20029;-74
2022/10/27 04:37:34;;;;;;;17.55;3.38;;;15.50;99.90;;;;;;5062817;28;20024;-74
2022/10/27 04:40:00;;;;;;;15.73;3.50;;;15.40;99.90;;;;;;5059720;28;20108;-74
2022/10/27 04:42:26;;;;;;;11.13;3.22;;;15.30;99.90;;;;;;5062713;28;20478;-74
2022/10/27 04:44:51;;;;;;;7.07;3.97;;;15.30;99.90;;;;;;5053463;28;20025;-73
2022/10/27 04:47:17;;;;;;;11.43;3.63;;;15.30;99.90;;;;;;5059828;28;20040;-74
2022/10/27 04:49:42;;;;;;;13.32;4.00;;;15.20;99.90;;;;;;5061392;28;20511;-73
2022/10/27 04:52:08;;;;;;;12.60;3.75;;;15.30;99.90;;;;;;5059778;28;20508;-74
2022/10/27 04:54:34;;;;;;;11.43;3.95;;;15.40;99.90;;;;;;5060368;28;20033;-74
2022/10/27 04:56:59;;;;;;;15.18;3.53;;;15.50;99.90;;;;;;5061069;28;20025;-74
2022/10/27 04:59:25;;;;;;;15.50;4.28;;;15.40;99.90;;;;;;5063010;28;20036;-74
2022/10/27 05:01:51;;;;;;;5.88;3.92;;;15.40;99.90;;;;;;5062770;28;20039;-73
2022/10/27 05:04:16;;;;;;;11.73;5.00;;;15.40;99.90;;;;;;5056304;28;20062;-74
2022/10/27 05:06:42;;;;;;;13.60;4.43;;;15.30;99.90;;;;;;5061861;28;20031;-73
2022/10/27 05:09:08;;;;;;;12.60;4.13;;;15.30;99.90;;;;;;5063549;28;20115;-74
2022/10/27 05:11:33;;;;;;;9.35;3.67;;;15.40;99.90;;;;;;5061228;28;20384;-74
2022/10/27 05:13:59;;;;;;;16.13;4.50;;;15.30;99.90;;;;;;5060343;28;20032;-74
2022/10/27 05:16:24;;;;;;;18.33;4.10;;;15.30;99.90;;;;;;5059627;28;20436;-74
2022/10/27 05:18:50;;;;;;;10.75;3.45;;;15.30;99.90;;;;;;5060057;28;20064;-74
2022/10/27 05:21:16;;;;;;;8.65;3.80;;;15.30;99.90;;;;;;5057704;28;20021;-74
2022/10/27 05:23:41;;;;;;;11.85;3.90;;;15.40;99.90;;;;;;5064798;28;20032;-74
2022/10/27 05:26:07;;;;;;;7.65;3.75;;;15.50;99.90;;;;;;5058240;28;20020;-74
2022/10/27 05:28:33;;;;;;;11.40;3.97;;;15.50;99.90;;;;;;5066298;28;20021;-74
2022/10/27 05:30:59;;;;;;;7.70;3.95;;;15.60;99.90;;;;;;5062319;28;20401;-74
2022/10/27 05:33:26;;;;;;;9.15;4.00;;;15.50;99.90;;;;;;5064839;28;20028;-74
2022/10/27 05:35:52;;;;;;;11.13;4.70;;;15.50;99.90;;;;;;5061032;28;20025;-74
2022/10/27 05:38:17;;;;;;;6.53;3.55;;;15.60;99.90;;;;;;5064549;28;20021;-74
2022/10/27 05:40:43;;;;;;;9.30;4.50;;;15.60;99.90;;;;;;5065347;28;20041;-74
2022/10/27 05:43:09;;;;;;;6.03;4.05;;;15.60;99.90;;;;;;5065061;28;20029;-74
2022/10/27 05:45:35;;;;;;;8.27;3.33;;;15.60;99.90;;;;;;5075002;28;20036;-74
2022/10/27 05:48:06;;;;;;;8.02;3.65;;;15.60;99.90;;;;;;5063406;28;20037;-74
2022/10/27 05:50:33;;;;;;;9.25;3.50;;;15.40;99.90;;;;;;5065996;28;20029;-74
2022/10/27 05:52:58;;;;;;;9.35;3.47;;;15.40;99.90;;;;;;5068150;28;20013;-75
2022/10/27 05:55:25;;;;;;;13.02;3.50;;;15.30;99.90;;;;;;5059025;28;20039;-75
2022/10/27 05:57:56;;;;;;;9.00;3.47;;;15.20;99.90;;;;;;5068079;28;20055;-74
2022/10/27 06:00:23;;;;;;;12.50;3.90;;;15.30;99.90;;;;;;5063829;28;20044;-74
2022/10/27 06:02:49;;;;;;;8.95;4.00;;;15.20;99.90;;;;;;5058199;28;20417;-74
2022/10/27 06:05:15;;;;;;;10.07;3.00;;;15.30;99.90;;;;;;5062103;28;20032;-74
2022/10/27 06:07:41;;;;;;;21.48;4.30;;;15.30;99.90;;;;;;5064959;28;20032;-74
2022/10/27 06:10:07;;;;;;;8.07;3.22;;;15.20;99.90;;;;;;5062841;28;20021;-74
2022/10/27 06:12:33;;;;;;;8.52;3.85;;;15.10;99.90;;;;;;5063548;28;20021;-75
2022/10/27 06:14:59;;;;;;;8.52;3.35;;;15.10;99.90;;;;;;5064079;28;20465;-73
2022/10/27 06:17:24;;;;;;;13.40;3.00;;;15.00;99.90;;;;;;5066503;28;20086;-73
2022/10/27 06:19:50;;;;;;;9.20;3.10;;;15.10;99.90;;;;;;5066223;28;20035;-77
2022/10/27 06:22:15;;;;;;;14.60;3.60;;;15.20;99.90;;;;;;5057962;28;20374;-74
2022/10/27 06:24:41;;;;;;;16.63;4.20;;;15.30;99.90;;;;;;5063264;28;20035;-74
2022/10/27 06:27:06;;;;;;;10.45;3.25;;;15.30;99.90;;;;;;5060065;28;20035;-75
2022/10/27 06:29:32;;;;;;;7.18;3.67;;;15.20;99.90;;;;;;5065565;28;20224;-73
2022/10/27 06:31:57;;;;;;;5.97;3.30;;;15.10;99.90;;;;;;5065634;28;20021;-74
2022/10/27 06:34:23;;;;;;;13.18;4.03;;;15.10;99.90;;;;;;5062785;28;20029;-73
2022/10/27 06:36:48;;;;;;;9.07;3.88;;;15.10;99.90;;;;;;5060040;28;20378;-74
2022/10/27 06:39:14;;;;;;;7.32;3.15;;;15.10;99.90;;;;;;5058724;28;20025;-74
2022/10/27 06:41:40;;;;;;;10.63;3.83;;;15.20;99.90;;;;;;5061062;28;20055;-74
2022/10/27 06:44:05;;;;;;;10.45;3.30;;;15.10;99.90;;;;;;5067638;28;20163;-74
2022/10/27 06:46:33;;;;;;;5.07;2.95;;;15.10;99.90;;;;;;5062542;28;20020;-74
2022/10/27 06:48:59;;;;;;;12.38;3.42;;;15.10;99.90;;;;;;5065311;28;20021;-74
2022/10/27 06:51:25;;;;;;;6.35;3.20;;;15.10;99.90;;;;;;5061336;28;20012;-74
2022/10/27 06:53:51;;;;;;;7.45;2.95;;;15.20;99.90;;;;;;5059966;28;20086;-73
2022/10/27 06:56:18;;;;;;;8.65;3.72;;;15.20;99.90;;;;;;5060983;28;20487;-74
2022/10/27 06:58:46;;;;;;;16.23;3.10;;;15.20;99.90;;;;;;5069819;28;20036;-75
2022/10/27 07:01:12;;;;;;;16.23;3.08;;;15.10;99.90;;;;;;5068994;28;20044;-74
2022/10/27 07:03:37;;;;;;;9.30;3.03;;;15.10;99.90;;;;;;5059423;28;20511;-74
2022/10/27 07:06:03;;;;;;;6.22;2.72;;;15.10;99.90;;;;;;5064175;28;20484;-74
2022/10/27 07:08:29;;;;;;;11.02;3.33;;;15.10;99.90;;;;;;5064691;28;20027;-74
2022/10/27 07:10:54;;;;;;;5.90;3.20;;;15.00;99.90;;;;;;5063448;28;20024;-74
2022/10/27 07:13:20;;;;;;;8.55;2.90;;;15.00;99.90;;;;;;5066211;28;20024;-74
2022/10/27 07:15:45;;;;;;;6.72;2.60;;;14.90;99.90;;;;;;5062566;28;20056;-74
2022/10/27 07:18:11;;;;;;;8.75;3.05;;;15.00;99.90;;;;;;5060452;28;20534;-74
2022/10/27 07:20:40;;;;;;;9.38;3.30;;;14.90;99.90;;;;;;5062460;28;20048;-74
2022/10/27 07:23:07;;;;;;;9.38;3.20;;;15.00;99.90;;;;;;5058500;28;20501;-75
2022/10/27 07:25:33;;;;;;;8.95;2.88;;;15.00;99.90;;;;;;5057944;28;20067;-75
2022/10/27 07:28:02;;;;;;;8.43;3.17;;;15.00;99.90;;;;;;5063665;28;20044;-76
2022/10/27 07:30:30;;;;;;;6.05;2.65;;;15.10;99.90;;;;;;5062977;28;20032;-75
2022/10/27 07:32:56;;;;;;;9.45;2.53;;;15.10;99.90;;;;;;5060313;28;20028;-74
2022/10/27 07:35:22;;;;;;;8.20;2.92;;;15.10;99.90;;;;;;5059383;28;20473;-75
2022/10/27 07:37:48;;;;;;;6.18;2.75;;;15.00;99.90;;;;;;5067452;28;20031;-74
2022/10/27 07:40:16;;;;;;;5.63;2.50;;;14.90;99.90;;;;;;5058358;28;20040;-74
2022/10/27 07:42:53;;;;;;;5.82;2.60;;;15.00;99.90;;;;;;5054349;28;20028;-74
2022/10/27 07:45:21;;;;;;;5.70;2.85;;;15.10;99.90;;;;;;5062049;28;20017;-73
2022/10/27 07:47:49;;;;;;;8.55;2.38;;;15.20;99.90;;;;;;5067741;28;20440;-74
2022/10/27 07:50:16;;;;;;;3.95;1.92;;;15.20;99.90;;;;;;5066772;28;20051;-76
2022/10/27 07:52:46;;;;;;;4.75;2.55;;;15.30;99.90;;;;;;5057710;28;20017;-77
2022/10/27 07:55:14;;;;;;;6.78;2.58;;;15.30;99.90;;;;;;5064723;28;20035;-74
2022/10/27 07:57:40;;;;;;;9.55;2.25;;;15.40;99.90;;;;;;5063697;28;20024;-74
2022/10/27 08:00:09;;;;;;;5.35;2.38;;;15.40;99.90;;;;;;5059524;28;20044;-75
2022/10/27 08:02:34;;;;;;;6.85;2.40;;;15.50;99.90;;;;;;5059952;28;20427;-74
2022/10/27 08:05:00;;;;;;;7.70;1.98;;;15.50;99.90;;;;;;5062272;28;20021;-75
2022/10/27 08:07:26;;;;;;;12.45;2.00;;;15.60;99.90;;;;;;5062763;28;20063;-75
2022/10/27 08:09:51;;;;;;;5.55;2.47;;;15.70;99.90;;;;;;5066316;28;20020;-75
2022/10/27 08:12:17;;;;;;;5.63;2.40;;;15.70;99.90;;;;;;5057350;28;20509;-76
2022/10/27 08:14:43;;;;;;;7.60;2.20;;;15.70;99.90;;;;;;5064894;28;20032;-76
2022/10/27 08:17:09;;;;;;;7.30;2.42;;;15.70;99.90;;;;;;5059682;28;20102;-74
2022/10/27 08:19:34;;;;;;;6.18;2.35;;;15.80;99.90;;;;;;5060283;28;20025;-75
2022/10/27 08:22:00;;;;;;;7.43;2.25;;;15.90;99.90;;;;;;5061039;28;20082;-76
2022/10/27 08:24:26;;;;;;;5.97;2.47;;;15.90;99.90;;;;;;5058959;28;20017;-75
2022/10/27 08:26:51;;;;;;;10.35;2.50;;;16.00;99.90;;;;;;5065546;28;20078;-74
2022/10/27 08:29:17;;;;;;;6.50;2.08;;;16.00;99.90;;;;;;5059822;28;20024;-74
2022/10/27 08:31:42;;;;;;;5.95;2.00;;;16.10;99.90;;;;;;5068618;28;20029;-73
2022/10/27 08:34:08;;;;;;;8.90;2.65;;;16.20;99.90;;;;;;5066096;28;20043;-74
2022/10/27 08:36:37;;;;;;;9.35;2.35;;;16.30;99.90;;;;;;5062182;28;20044;-75
2022/10/27 08:39:04;;;;;;;8.43;2.30;;;16.40;99.90;;;;;;5058046;28;20025;-74
2022/10/27 08:41:37;;;;;;;7.82;2.15;;;16.40;99.90;;;;;;5062775;28;20029;-75
2022/10/27 08:44:30;;;;;;;5.97;1.80;;;16.50;99.90;;;;;;5058613;28;20090;-74
2022/10/27 08:47:02;;;;;;;5.20;1.67;;;16.60;99.90;;;;;;5058550;28;20048;-74
2022/10/27 08:49:55;;;;;;;9.95;1.70;;;16.60;99.90;;;;;;5070497;28;20021;-75
2022/10/27 08:53:01;;;;;;;6.53;2.28;;;16.60;99.90;;;;;;5060701;28;20112;-74
2022/10/27 08:55:39;;;;;;;6.53;2.30;;;16.70;99.90;;;;;;5059529;28;20041;-74
2022/10/27 08:58:15;;;;;;;5.95;1.70;;;16.80;99.90;;;;;;5061195;28;20032;-74
2022/10/27 09:00:52;;;;;;;6.45;1.60;;;16.90;99.90;;;;;;5062085;28;20086;-76
2022/10/27 09:03:27;;;;;;;5.30;1.60;;;17.00;99.90;;;;;;5059518;28;20025;-75
2022/10/27 09:06:04;;;;;;;5.40;1.63;;;17.10;99.90;;;;;;5063837;28;20028;-75
2022/10/27 09:08:40;;;;;;;5.20;1.95;;;17.20;99.90;;;;;;5069185;28;20571;-73
2022/10/27 09:11:25;;;;;;;4.72;1.63;;;17.20;99.90;;;;;;5066325;28;20016;-75
2022/10/27 09:13:53;;;;;;;3.80;1.63;;;17.40;99.90;;;;;;5066233;28;20116;-74
2022/10/27 09:17:08;;;;;;;4.90;1.85;;;17.50;99.90;;;;;;5064019;28;20025;-73
2022/10/27 09:19:42;;;;;;;4.00;1.90;;;17.60;99.90;;;;;;5041866;28;20167;-73
2022/10/27 09:22:13;;;;;;;3.50;1.75;;;17.70;99.90;;;;;;5044961;28;20112;-75
2022/10/27 09:24:39;;;;;;;5.35;1.58;;;17.80;99.90;;;;;;5057048;28;20040;-75
2022/10/27 09:27:06;;;;;;;3.70;1.52;;;17.90;99.90;;;;;;5066277;28;20025;-74
2022/10/27 09:29:35;;;;;;;2.97;1.55;;;18.00;99.90;;;;;;5073889;28;20025;-75
2022/10/27 09:32:18;;;;;;;6.30;1.75;;;18.00;99.90;;;;;;5066960;28;20033;-75
2022/10/27 09:35:03;;;;;;;4.28;1.73;;;18.20;99.90;;;;;;5063287;28;20056;-75
2022/10/27 09:37:31;;;;;;;10.82;2.42;;;18.30;99.90;;;;;;5066610;28;20052;-75
2022/10/27 09:39:58;;;;;;;3.65;1.75;;;18.40;99.90;;;;;;5062193;28;20381;-75
2022/10/27 09:42:25;;;;;;;6.10;2.10;;;18.40;99.90;;;;;;5067455;28;20051;-75
2022/10/27 09:45:00;;;;;;;9.30;1.85;;;18.40;99.90;;;;;;5062306;28;20079;-75
2022/10/27 09:47:36;;;;;;;5.43;1.52;;;18.50;99.90;;;;;;5070911;28;20037;-75
2022/10/27 09:50:05;;;;;;;4.75;1.50;;;18.50;99.90;;;;;;5061622;28;20083;-75
2022/10/27 09:52:39;;;;;;;6.50;2.00;;;18.60;99.90;;;;;;5067503;28;20033;-75
2022/10/27 09:55:05;;;;;;;4.00;1.58;;;18.70;99.90;;;;;;5059734;28;20029;-75
2022/10/27 09:57:33;;;;;;;4.32;1.38;;;18.70;99.90;;;;;;5063975;28;20075;-74
2022/10/27 10:00:22;;;;;;;3.13;1.55;;;18.80;99.90;;;;;;5063095;28;20465;-75
2022/10/27 10:02:57;;;;;;;9.93;1.80;;;18.90;99.90;;;;;;5062859;28;20029;-75
2022/10/27 10:05:31;;;;;;;5.32;1.77;;;19.00;99.90;;;;;;5059086;28;20025;-75
2022/10/27 10:08:22;;;;;;;6.35;1.83;;;19.10;99.90;;;;;;5060913;28;20024;-75
2022/10/27 10:10:56;;;;;;;4.38;1.95;;;19.20;99.90;;;;;;5064271;28;20032;-75
2022/10/27 10:13:23;;;;;;;10.27;1.80;;;19.30;99.90;;;;;;5062384;28;20028;-75
2022/10/27 10:16:03;;;;;;;8.70;1.60;;;19.30;99.90;;;;;;5070588;28;20499;-75
2022/10/27 10:18:30;;;;;;;6.13;1.58;;;19.40;99.90;;;;;;5065619;28;20033;-75
2022/10/27 10:21:04;;;;;;;6.05;1.52;;;19.40;99.90;;;;;;5059588;28;20037;-75
2022/10/27 10:23:40;;;;;;;5.35;1.52;;;19.40;99.90;;;;;;5059856;28;20032;-74
2022/10/27 10:26:25;;;;;;;2.60;1.65;;;19.50;99.90;;;;;;5062964;28;20029;-75
2022/10/27 10:28:54;;;;;;;5.85;1.50;;;19.60;99.90;;;;;;5058488;28;20028;-75
2022/10/27 10:31:25;;;;;;;5.30;1.88;;;19.70;99.90;;;;;;5066026;28;20036;-75
2022/10/27 10:33:53;;;;;;;5.57;1.40;;;19.80;99.90;;;;;;5062448;28;20222;-75
2022/10/27 10:36:28;;;;;;;6.75;1.98;;;19.90;99.90;;;;;;5060781;28;20092;-75
2022/10/27 10:38:58;;;;;;;6.32;1.52;;;19.90;99.90;;;;;;5062758;28;20047;-75
2022/10/27 10:41:28;;;;;;;5.43;1.75;;;20.00;99.90;;;;;;5066810;28;20493;-75
2022/10/27 10:44:14;;;;;;;11.70;1.85;;;20.00;99.90;;;;;;5063534;28;20021;-74
2022/10/27 10:46:55;;;;;;;9.35;1.70;;;20.10;99.90;;;;;;5060570;28;20047;-75
2022/10/27 10:49:27;;;;;;;6.95;1.77;;;20.20;99.90;;;;;;5066938;28;20028;-75
2022/10/27 10:51:58;;;;;;;5.32;1.42;;;20.30;99.90;;;;;;5054950;28;20025;-75
2022/10/27 10:54:31;;;;;;;6.68;1.90;;;20.30;99.90;;;;;;5058764;28;20067;-75
2022/10/27 10:56:57;;;;;;;6.25;1.52;;;20.40;99.90;;;;;;5058876;28;20028;-74
2022/10/27 10:59:29;;;;;;;8.88;1.90;;;20.40;99.90;;;;;;5064539;28;20099;-75
2022/10/27 11:02:21;;;;;;;3.72;1.30;;;20.50;99.90;;;;;;5066558;28;20031;-76
2022/10/27 11:04:47;;;;;;;7.18;1.40;;;20.50;99.90;;;;;;5064885;28;20381;-76
2022/10/27 11:07:22;;;;;;;10.60;1.65;;;20.60;99.90;;;;;;5061804;28;20028;-76
2022/10/27 11:10:13;;;;;;;6.15;1.70;;;20.60;99.90;;;;;;5065568;28;20032;-76
2022/10/27 11:13:07;;;;;;;5.47;2.08;;;20.60;99.90;;;;;;5058376;28;20116;-75
2022/10/27 11:15:39;;;;;;;7.80;2.22;;;20.70;99.90;;;;;;5062878;28;20037;-76
2022/10/27 11:18:14;;;;;;;6.10;1.67;;;20.70;99.90;;;;;;5061521;28;20086;-76
2022/10/27 11:20:41;;;;;;;10.20;1.60;;;20.70;99.90;;;;;;5057146;28;20302;-76
2022/10/27 11:23:17;;;;;;;6.30;1.70;;;20.70;99.90;;;;;;5064842;28;20016;-75
2022/10/27 11:25:44;;;;;;;6.15;1.90;;;20.70;99.90;;;;;;5060650;28;20063;-76
2022/10/27 11:28:23;;;;;;;7.53;1.63;;;20.80;99.90;;;;;;5057550;28;20032;-75
2022/10/27 11:30:57;;;;;;;5.60;1.35;;;20.80;99.90;;;;;;5059121;28;20033;-75
2022/10/27 11:33:31;;;;;;;2.20;1.20;;;20.80;99.90;;;;;;5065374;28;20050;-74
2022/10/27 11:36:05;;;;;;;6.70;1.77;;;20.70;99.90;;;;;;5060227;28;20081;-74
2022/10/27 11:38:58;;;;;;;8.93;2.10;;;20.80;99.90;;;;;;5066865;28;20024;-74
2022/10/27 11:41:26;;;;;;;;;;;20.90;99.90;;;;;;5055266;28;20036;-77
2022/10/27 11:44:46;;;;;;;13.60;2.20;;;20.80;99.90;;;;;;5063521;28;19909;-76
2022/10/27 11:47:27;;;;;;;8.90;1.65;;;20.90;99.90;;;;;;5028983;28;20053;-76
2022/10/27 11:50:05;;;;;;;6.03;1.42;;;20.90;99.90;;;;;;5056354;28;20123;-74
2022/10/27 11:52:50;;;;;;;10.07;2.13;;;20.90;99.90;;;;;;5060716;28;20074;-75
2022/10/27 11:55:19;;;;;;;7.57;1.63;;;20.90;99.90;;;;;;5055163;28;20033;-75
2022/10/27 11:58:15;;;;;;;9.35;1.77;;;20.80;99.90;;;;;;5065623;28;20086;-75
2022/10/27 12:01:02;;;;;;;6.05;1.85;;;20.80;99.90;;;;;;5055488;28;20036;-75
2022/10/27 12:03:30;;;;;;;6.22;1.63;;;20.80;99.90;;;;;;5061765;28;20028;-76
2022/10/27 12:06:08;;;;;;;3.15;1.98;;;20.80;99.90;;;;;;5055151;28;20033;-74
2022/10/27 12:08:36;;;;;;;13.68;2.63;;;20.90;99.90;;;;;;5061261;28;20009;-73
2022/10/27 12:11:35;;;;;;;4.72;2.00;;;20.90;99.90;;;;;;5058253;28;20491;-73
2022/10/27 12:14:24;;;;;;;17.55;2.80;;;20.90;99.90;;;;;;5057718;28;20033;-73
2022/10/27 12:17:04;;;;;;;9.35;2.72;;;21.00;99.90;;;;;;5060488;28;20427;-73
2022/10/27 12:19:38;;;;;;;8.90;1.67;;;21.00;99.90;;;;;;5061950;28;20027;-73
2022/10/27 12:22:28;;;;;;;8.75;2.65;;;21.00;99.90;;;;;;5056829;28;20033;-75
2022/10/27 12:25:04;;;;;;;7.68;2.00;;;21.10;99.90;;;;;;5060253;28;20120;-74
2022/10/27 12:27:45;;;;;;;8.50;1.77;;;21.20;99.90;;;;;;5064817;28;20028;-75
2022/10/27 12:30:13;;;;;;;4.88;1.75;;;21.20;99.90;;;;;;5061826;28;20040;-75
2022/10/27 12:32:48;;;;;;;5.93;1.98;;;21.30;99.90;;;;;;5064188;28;20469;-75
2022/10/27 12:35:28;;;;;;;10.30;2.28;;;21.30;99.90;;;;;;5058359;28;20029;-75
2022/10/27 12:38:06;;;;;;;8.18;2.08;;;21.40;99.90;;;;;;5062549;28;20027;-74
2022/10/27 12:40:42;;;;;;;11.50;1.88;;;21.40;99.90;;;;;;5062990;28;20040;-75
2022/10/27 12:43:17;;;;;;;5.50;2.05;;;21.50;99.90;;;;;;5064349;28;20035;-74
2022/10/27 12:46:00;;;;;;;7.13;2.08;;;21.60;99.90;;;;;;5064436;28;20477;-74
2022/10/27 12:48:38;;;;;;;11.55;2.30;;;21.60;99.90;;;;;;5062753;28;20068;-74
2022/10/27 12:51:13;;;;;;;7.68;2.30;;;21.60;99.90;;;;;;5063020;28;20052;-74
2022/10/27 12:53:47;;;;;;;5.38;1.90;;;21.70;99.90;;;;;;5061956;28;20063;-74
2022/10/27 12:56:48;;;;;;;4.38;1.98;;;21.70;99.90;;;;;;5057689;28;20021;-77
2022/10/27 12:59:27;;;;;;;7.60;2.10;;;21.70;99.90;;;;;;5059587;28;20470;-74
2022/10/27 13:02:03;;;;;;;7.28;2.17;;;21.70;99.90;;;;;;5056393;28;20035;-77
2022/10/27 13:04:50;;;;;;;9.27;2.60;;;21.80;99.90;;;;;;5069107;28;20423;-79
2022/10/27 13:07:19;;;;;;;4.18;1.83;;;21.80;99.90;;;;;;5055303;28;20029;-78